createdAt,value
2022-12-27T00:01:53.697Z,1.00
2022-12-27T00:04:39.686Z,1.00
2022-12-27T00:07:25.417Z,1.00
2022-12-27T00:10:11.749Z,1.00
2022-12-27T00:12:57.608Z,1.00
2022-12-27T00:15:44.324Z,1.00
2022-12-27T00:18:30.006Z,1.00
2022-12-27T00:21:17.050Z,1.00
2022-12-27T00:24:04.586Z,1.00
2022-12-27T00:26:50.228Z,1.00
2022-12-27T00:29:35.609Z,1.00
2022-12-27T00:32:21.374Z,1.00
2022-12-27T00:35:07.853Z,1.00
2022-12-27T00:37:53.260Z,1.00
2022-12-27T00:40:42.747Z,1.00
2022-12-27T00:43:28.784Z,1.00
2022-12-27T00:46:15.068Z,1.00
2022-12-27T00:49:00.638Z,1.00
2022-12-27T00:51:46.216Z,1.00
2022-12-27T00:54:31.842Z,1.00
2022-12-27T00:57:17.274Z,1.00
2022-12-27T01:00:10.055Z,1.00
2022-12-27T01:02:56.388Z,1.00
2022-12-27T01:05:43.160Z,1.00
2022-12-27T01:08:30.161Z,1.00
2022-12-27T01:11:17.442Z,1.00
2022-12-27T01:14:04.930Z,1.00
2022-12-27T01:16:51.196Z,1.00
2022-12-27T01:19:37.330Z,1.00
2022-12-27T01:22:23.387Z,1.00
2022-12-27T01:25:09.869Z,1.00
2022-12-27T01:27:55.555Z,1.00
2022-12-27T01:30:41.073Z,1.00
2022-12-27T01:33:26.600Z,1.00
2022-12-27T01:36:16.545Z,1.00
2022-12-27T01:39:02.320Z,1.00
2022-12-27T01:42:06.511Z,1.00
2022-12-27T01:44:57.555Z,1.00
2022-12-27T01:48:01.767Z,1.00
2022-12-27T01:50:51.323Z,1.00
2022-12-27T01:53:42.335Z,1.00
2022-12-27T01:56:31.643Z,1.00
2022-12-27T01:59:17.537Z,1.00
2022-12-27T02:02:03.876Z,1.00
2022-12-27T02:04:49.970Z,1.00
2022-12-27T02:07:50.274Z,1.00
2022-12-27T02:10:36.723Z,1.00
2022-12-27T02:13:23.092Z,1.00
2022-12-27T02:16:13.657Z,1.00
2022-12-27T02:18:59.616Z,1.00
2022-12-27T02:22:11.503Z,1.00
2022-12-27T02:25:15.660Z,1.00
2022-12-27T02:28:26.407Z,1.00
2022-12-27T02:31:19.275Z,1.00
2022-12-27T02:34:34.589Z,1.00
2022-12-27T02:37:24.161Z,1.00
2022-12-27T02:40:30.411Z,1.00
2022-12-27T02:43:35.371Z,1.00
2022-12-27T02:46:45.443Z,1.00
2022-12-27T02:49:53.081Z,1.00
2022-12-27T02:53:18.031Z,1.00
2022-12-27T02:56:52.057Z,1.00
2022-12-27T03:00:15.113Z,1.00
2022-12-27T03:03:21.425Z,1.00
2022-12-27T03:06:41.297Z,1.00
2022-12-27T03:10:03.527Z,1.00
2022-12-27T03:13:18.243Z,1.00
2022-12-27T03:16:31.994Z,1.00
2022-12-27T03:19:40.435Z,1.00
2022-12-27T03:22:48.040Z,1.00
2022-12-27T03:25:36.288Z,1.00
2022-12-27T03:28:45.604Z,1.00
2022-12-27T03:31:55.593Z,1.00
2022-12-27T03:34:47.351Z,1.00
2022-12-27T03:37:55.884Z,1.00
2022-12-27T03:41:17.847Z,1.00
2022-12-27T03:44:23.154Z,1.00
2022-12-27T03:47:30.283Z,1.00
2022-12-27T03:50:27.163Z,1.00
2022-12-27T03:53:18.917Z,1.00
2022-12-27T03:56:06.102Z,1.00
2022-12-27T03:58:52.709Z,1.00
2022-12-27T04:01:38.494Z,1.00
2022-12-27T04:04:24.522Z,1.00
2022-12-27T04:07:13.407Z,1.00
2022-12-27T04:10:17.516Z,1.00
2022-12-27T04:13:21.384Z,1.00
2022-12-27T04:16:25.618Z,1.00
2022-12-27T04:19:29.629Z,1.00
2022-12-27T04:22:33.941Z,1.00
2022-12-27T04:25:38.213Z,1.00
2022-12-27T04:28:42.038Z,1.00
2022-12-27T04:31:46.171Z,1.00
2022-12-27T04:34:43.775Z,1.00
2022-12-27T04:37:29.487Z,1.00
2022-12-27T04:40:33.909Z,1.00
2022-12-27T04:43:37.788Z,1.00
2022-12-27T04:46:44.247Z,1.00
2022-12-27T04:49:48.108Z,1.00
2022-12-27T04:52:53.019Z,1.00
2022-12-27T04:55:38.768Z,1.00
2022-12-27T04:58:25.139Z,1.00
2022-12-27T05:01:29.123Z,1.00
2022-12-27T05:04:14.917Z,1.00
2022-12-27T05:07:21.064Z,1.00
2022-12-27T05:10:25.820Z,1.00
2022-12-27T05:13:31.303Z,1.00
2022-12-27T05:16:16.953Z,1.00
2022-12-27T05:19:02.845Z,1.00
2022-12-27T05:22:06.923Z,1.00
2022-12-27T05:25:10.920Z,1.00
2022-12-27T05:27:56.707Z,1.00
2022-12-27T05:30:43.729Z,1.00
2022-12-27T05:33:31.991Z,1.00
2022-12-27T05:36:17.900Z,1.00
2022-12-27T05:39:03.785Z,1.00
2022-12-27T05:41:49.614Z,1.00
2022-12-27T05:44:35.192Z,1.00
2022-12-27T05:47:20.582Z,1.00
2022-12-27T05:50:07.220Z,1.00
2022-12-27T05:52:52.677Z,1.00
2022-12-27T05:55:38.304Z,1.00
2022-12-27T05:58:25.794Z,1.00
2022-12-27T06:01:14.085Z,1.00
2022-12-27T06:03:59.908Z,1.00
2022-12-27T06:06:45.498Z,1.00
2022-12-27T06:09:31.366Z,1.00
2022-12-27T06:12:17.133Z,1.00
2022-12-27T06:15:04.293Z,1.00
2022-12-27T06:17:49.773Z,1.00
2022-12-27T06:20:35.284Z,1.00
2022-12-27T06:23:20.813Z,1.00
2022-12-27T06:26:07.755Z,1.00
2022-12-27T06:28:55.470Z,1.00
2022-12-27T06:31:41.643Z,1.00
2022-12-27T06:34:27.592Z,1.00
2022-12-27T06:37:13.176Z,1.00
2022-12-27T06:39:58.893Z,1.00
2022-12-27T06:42:44.476Z,1.00
2022-12-27T06:45:30.073Z,1.00
2022-12-27T06:48:15.472Z,1.00
2022-12-27T06:51:07.589Z,1.00
2022-12-27T06:53:53.290Z,1.00
2022-12-27T06:56:38.826Z,1.00
2022-12-27T06:59:24.677Z,1.00
2022-12-27T07:02:11.756Z,1.00
2022-12-27T07:04:57.621Z,1.00
2022-12-27T07:07:43.244Z,1.00
2022-12-27T07:10:29.039Z,1.00
2022-12-27T07:13:14.501Z,1.00
2022-12-27T07:16:00.038Z,1.00
2022-12-27T07:18:47.144Z,1.00
2022-12-27T07:21:37.213Z,1.00
2022-12-27T07:24:23.657Z,1.00
2022-12-27T07:27:09.338Z,1.00
2022-12-27T07:29:54.935Z,1.00
2022-12-27T07:32:40.401Z,1.00
2022-12-27T07:35:25.951Z,1.00
2022-12-27T07:38:11.796Z,1.00
2022-12-27T07:41:02.401Z,1.00
2022-12-27T07:43:48.164Z,1.00
2022-12-27T07:46:34.092Z,1.00
2022-12-27T07:49:19.788Z,1.00
2022-12-27T07:52:05.559Z,1.00
2022-12-27T07:54:50.922Z,1.00
2022-12-27T07:57:36.817Z,1.00
2022-12-27T08:00:22.308Z,1.00
2022-12-27T08:03:10.657Z,1.00
2022-12-27T08:05:56.208Z,1.00
2022-12-27T08:08:44.167Z,1.00
2022-12-27T08:11:31.161Z,1.00
2022-12-27T08:14:18.087Z,1.00
2022-12-27T08:17:27.558Z,1.00
2022-12-27T08:20:16.677Z,1.00
2022-12-27T08:23:02.707Z,1.00
2022-12-27T08:25:49.042Z,1.00
2022-12-27T08:28:36.087Z,1.00
2022-12-27T08:31:21.950Z,1.00
2022-12-27T08:34:09.173Z,1.00
2022-12-27T08:36:56.121Z,1.00
2022-12-27T08:39:42.739Z,1.00
2022-12-27T08:42:28.284Z,1.00
2022-12-27T08:45:14.326Z,1.00
2022-12-27T08:48:00.498Z,1.00
2022-12-27T08:50:46.281Z,1.00
2022-12-27T08:53:34.656Z,1.00
2022-12-27T08:56:20.207Z,1.00
2022-12-27T08:59:05.808Z,1.00
2022-12-27T09:01:51.536Z,1.00
2022-12-27T09:04:36.870Z,1.00
2022-12-27T09:07:22.896Z,1.00
2022-12-27T09:10:09.321Z,1.00
2022-12-27T09:12:55.190Z,1.00
2022-12-27T09:15:42.086Z,1.00
2022-12-27T09:18:31.303Z,1.00
2022-12-27T09:21:19.615Z,1.00
2022-12-27T09:24:05.552Z,1.00
2022-12-27T09:26:53.183Z,1.00
2022-12-27T09:29:43.007Z,1.00
2022-12-27T09:32:32.070Z,1.00
2022-12-27T09:35:17.880Z,1.00
2022-12-27T09:38:03.756Z,1.00
2022-12-27T09:40:58.001Z,1.00
2022-12-27T09:44:13.005Z,1.00
2022-12-27T09:47:39.269Z,1.00
2022-12-27T09:50:27.703Z,1.00
2022-12-27T09:53:39.460Z,1.00
2022-12-27T09:56:54.010Z,1.00
2022-12-27T09:59:42.658Z,1.00
2022-12-27T10:02:30.063Z,1.00
2022-12-27T10:05:31.716Z,1.00
2022-12-27T10:08:55.943Z,1.00
2022-12-27T10:12:20.262Z,1.00
2022-12-27T10:15:46.994Z,1.00
2022-12-27T10:18:49.015Z,1.00
2022-12-27T10:21:40.038Z,1.00
2022-12-27T10:24:51.362Z,1.00
2022-12-27T10:27:38.086Z,1.00
2022-12-27T10:30:23.721Z,1.00
2022-12-27T10:33:29.405Z,1.00
2022-12-27T10:36:34.400Z,1.00
2022-12-27T10:39:21.721Z,1.00
2022-12-27T10:42:19.048Z,1.00
2022-12-27T10:45:39.273Z,1.00
2022-12-27T10:48:32.168Z,1.00
2022-12-27T10:51:33.542Z,1.00
2022-12-27T10:54:26.934Z,1.00
2022-12-27T10:57:25.930Z,1.00
2022-12-27T11:00:22.159Z,1.00
2022-12-27T11:03:19.349Z,1.00
2022-12-27T11:06:07.771Z,1.00
2022-12-27T11:08:54.627Z,1.00
2022-12-27T11:11:40.223Z,1.00
2022-12-27T11:14:25.782Z,1.00
2022-12-27T11:17:14.209Z,1.00
2022-12-27T11:20:02.388Z,1.00
2022-12-27T11:23:13.561Z,1.00
2022-12-27T11:26:01.588Z,1.00
2022-12-27T11:28:55.094Z,1.00
2022-12-27T11:31:47.970Z,1.00
2022-12-27T11:34:44.057Z,1.00
2022-12-27T11:37:29.586Z,1.00
2022-12-27T11:40:30.670Z,1.00
2022-12-27T11:43:19.336Z,1.00
2022-12-27T11:46:13.894Z,1.00
2022-12-27T11:48:59.361Z,1.00
2022-12-27T11:51:56.788Z,1.00
2022-12-27T11:55:13.121Z,1.00
2022-12-27T11:58:25.146Z,1.00
2022-12-27T12:01:48.852Z,1.00
2022-12-27T12:05:03.121Z,1.00
2022-12-27T12:07:54.524Z,1.00
2022-12-27T12:10:43.191Z,1.00
2022-12-27T12:13:47.798Z,1.00
2022-12-27T12:17:04.438Z,1.00
2022-12-27T12:20:35.564Z,1.00
2022-12-27T12:23:58.287Z,1.00
2022-12-27T12:27:18.165Z,1.00
2022-12-27T12:30:52.738Z,1.00
2022-12-27T12:33:58.785Z,1.00
2022-12-27T12:36:53.548Z,1.00
2022-12-27T12:39:51.013Z,1.00
2022-12-27T12:43:08.950Z,1.00
2022-12-27T12:46:25.948Z,1.00
2022-12-27T12:49:28.087Z,1.00
2022-12-27T12:52:30.978Z,1.00
2022-12-27T12:55:38.630Z,1.00
2022-12-27T12:58:49.160Z,1.00
2022-12-27T13:02:02.918Z,1.00
2022-12-27T13:04:54.498Z,1.00
2022-12-27T13:08:00.329Z,1.00
2022-12-27T13:10:55.035Z,1.00
2022-12-27T13:13:59.285Z,1.00
2022-12-27T13:17:09.711Z,1.00
2022-12-27T13:20:00.004Z,1.00
2022-12-27T13:22:53.811Z,1.00
2022-12-27T13:25:55.319Z,1.00
2022-12-27T13:28:55.643Z,1.00
2022-12-27T13:32:05.103Z,1.00
2022-12-27T13:35:21.479Z,1.00
2022-12-27T13:38:13.655Z,1.00
2022-12-27T13:41:11.364Z,1.00
2022-12-27T13:44:09.416Z,1.00
2022-12-27T13:47:33.111Z,1.00
2022-12-27T13:50:36.925Z,1.00
2022-12-27T13:54:00.336Z,1.00
2022-12-27T13:57:18.877Z,1.00
2022-12-27T14:00:09.718Z,1.00
2022-12-27T14:03:10.432Z,1.00
2022-12-27T14:06:26.752Z,1.00
2022-12-27T14:09:26.464Z,1.00
2022-12-27T14:12:53.309Z,1.00
2022-12-27T14:16:11.849Z,1.00
2022-12-27T14:19:16.245Z,1.00
2022-12-27T14:22:11.143Z,1.00
2022-12-27T14:25:34.381Z,1.00
2022-12-27T14:28:28.866Z,1.00
2022-12-27T14:31:42.365Z,1.00
2022-12-27T14:35:05.913Z,1.00
2022-12-27T14:38:15.700Z,1.00
2022-12-27T14:41:37.096Z,1.00
2022-12-27T14:44:56.059Z,1.00
2022-12-27T14:47:47.847Z,1.00
2022-12-27T14:51:00.899Z,1.00
2022-12-27T14:54:28.007Z,1.00
2022-12-27T14:57:43.548Z,1.00
2022-12-27T15:00:44.677Z,1.00
2022-12-27T15:04:02.294Z,1.00
2022-12-27T15:07:02.747Z,1.00
2022-12-27T15:10:09.344Z,1.00
2022-12-27T15:13:15.586Z,15.60
2022-12-27T15:16:14.988Z,1.00
2022-12-27T15:19:19.844Z,1.00
2022-12-27T15:22:29.060Z,1.00
2022-12-27T15:25:48.519Z,1.00
2022-12-27T15:29:16.595Z,1.00
2022-12-27T15:32:02.335Z,1.00
2022-12-27T15:35:07.354Z,17.00
2022-12-27T15:38:01.249Z,1.00
2022-12-27T15:40:55.253Z,1.00
2022-12-27T15:44:12.317Z,1.00
2022-12-27T15:47:38.088Z,1.00
2022-12-27T15:50:35.619Z,1.00
2022-12-27T15:53:48.485Z,1.00
2022-12-27T15:56:37.196Z,1.00
2022-12-27T15:59:37.534Z,1.00
2022-12-27T16:02:52.458Z,1.00
2022-12-27T16:05:47.750Z,1.00
2022-12-27T16:08:40.365Z,1.00
2022-12-27T16:12:04.590Z,1.00
2022-12-27T16:14:50.582Z,1.00
2022-12-27T16:17:52.049Z,1.00
2022-12-27T16:20:39.728Z,1.00
2022-12-27T16:23:28.617Z,1.00
2022-12-27T16:26:20.465Z,29.70
2022-12-27T16:29:07.929Z,21.00
2022-12-27T16:32:15.366Z,1.00
2022-12-27T16:35:14.726Z,1.00
2022-12-27T16:38:03.769Z,1.00
2022-12-27T16:40:55.962Z,1.00
2022-12-27T16:44:07.177Z,64.60
2022-12-27T16:47:17.661Z,74.90
2022-12-27T16:50:20.444Z,99.90
2022-12-27T16:53:24.331Z,99.90
2022-12-27T16:56:19.253Z,99.90
2022-12-27T16:59:43.451Z,17.00
2022-12-27T17:02:41.836Z,23.20
2022-12-27T17:05:35.711Z,73.90
2022-12-27T17:08:22.455Z,72.50
2022-12-27T17:11:25.546Z,16.60
2022-12-27T17:14:27.942Z,1.00
2022-12-27T17:17:22.634Z,1.00
2022-12-27T17:20:15.952Z,30.50
2022-12-27T17:23:04.422Z,1.00
2022-12-27T17:26:00.546Z,39.50
2022-12-27T17:29:15.048Z,99.90
2022-12-27T17:32:21.916Z,99.90
2022-12-27T17:35:10.538Z,99.90
2022-12-27T17:38:23.385Z,85.00
2022-12-27T17:41:47.457Z,1.00
2022-12-27T17:44:48.346Z,1.00
2022-12-27T17:47:48.687Z,1.00
2022-12-27T17:50:36.792Z,1.00
2022-12-27T17:53:42.504Z,16.50
2022-12-27T17:56:46.521Z,34.70
2022-12-27T17:59:34.902Z,1.00
2022-12-27T18:02:34.487Z,1.00
2022-12-27T18:05:27.401Z,1.00
2022-12-27T18:08:28.166Z,99.90
2022-12-27T18:11:15.634Z,99.90
2022-12-27T18:14:01.887Z,99.90
2022-12-27T18:16:47.835Z,99.90
2022-12-27T18:19:33.429Z,99.90
2022-12-27T18:22:20.172Z,99.90
2022-12-27T18:25:46.133Z,99.90
2022-12-27T18:28:34.406Z,99.90
2022-12-27T18:31:35.004Z,99.90
2022-12-27T18:34:33.617Z,99.90
2022-12-27T18:37:21.999Z,99.90
2022-12-27T18:40:17.897Z,99.90
2022-12-27T18:43:03.623Z,1.00
2022-12-27T18:45:49.075Z,99.90
2022-12-27T18:48:36.223Z,99.90
2022-12-27T18:51:28.641Z,1.00
2022-12-27T18:54:35.955Z,1.00
2022-12-27T18:57:33.372Z,1.00
2022-12-27T19:00:22.208Z,1.00
2022-12-27T19:03:19.246Z,1.00
2022-12-27T19:06:13.113Z,1.00
2022-12-27T19:08:58.886Z,1.00
2022-12-27T19:11:57.652Z,1.00
2022-12-27T19:14:45.344Z,1.00
2022-12-27T19:17:32.922Z,1.00
2022-12-27T19:20:36.138Z,1.00
2022-12-27T19:23:37.140Z,1.00
2022-12-27T19:26:31.967Z,1.00
2022-12-27T19:29:23.539Z,1.00
2022-12-27T19:32:10.859Z,1.00
2022-12-27T19:34:59.945Z,1.00
2022-12-27T19:37:45.846Z,1.00
2022-12-27T19:40:31.741Z,1.00
2022-12-27T19:43:19.279Z,1.00
2022-12-27T19:46:05.223Z,1.00
2022-12-27T19:49:23.293Z,1.00
2022-12-27T19:51:57.341Z,1.00
2022-12-27T19:54:43.078Z,1.00
2022-12-27T19:57:29.067Z,1.00
2022-12-27T20:00:17.241Z,29.20
2022-12-27T20:03:03.307Z,47.70
2022-12-27T20:06:12.369Z,65.30
2022-12-27T20:08:54.630Z,78.00
2022-12-27T20:11:40.212Z,82.00
2022-12-27T20:14:25.752Z,89.40
2022-12-27T20:17:10.937Z,93.80
2022-12-27T20:19:56.446Z,99.90
2022-12-27T20:22:41.906Z,99.90
2022-12-27T20:25:27.531Z,99.90
2022-12-27T20:28:13.827Z,99.90
2022-12-27T20:30:59.753Z,99.90
2022-12-27T20:33:45.740Z,99.30
2022-12-27T20:36:31.277Z,94.20
2022-12-27T20:39:16.887Z,93.30
2022-12-27T20:42:03.423Z,72.80
2022-12-27T20:44:48.871Z,71.90
2022-12-27T20:47:34.299Z,58.00
2022-12-27T20:50:19.865Z,55.70
2022-12-27T20:53:05.755Z,27.40
2022-12-27T20:55:59.174Z,38.90
2022-12-27T20:58:45.024Z,38.30
2022-12-27T21:01:30.949Z,34.70
2022-12-27T21:04:16.849Z,36.10
2022-12-27T21:07:02.708Z,12.50
2022-12-27T21:09:48.385Z,1.00
2022-12-27T21:12:35.442Z,5.80
2022-12-27T21:15:21.163Z,16.00
2022-12-27T21:18:06.841Z,39.70
2022-12-27T21:20:52.405Z,24.80
2022-12-27T21:23:38.477Z,10.10
2022-12-27T21:26:27.591Z,15.20
2022-12-27T21:29:14.519Z,10.60
2022-12-27T21:32:01.484Z,1.00
2022-12-27T21:34:46.874Z,1.00
2022-12-27T21:37:32.442Z,1.00
2022-12-27T21:40:19.240Z,1.00
2022-12-27T21:43:05.103Z,1.00
2022-12-27T21:45:50.640Z,1.00
2022-12-27T21:48:37.754Z,1.00
2022-12-27T21:51:24.399Z,1.00
2022-12-27T21:54:11.419Z,1.00
2022-12-27T21:56:57.126Z,1.00
2022-12-27T21:59:42.515Z,1.00
2022-12-27T22:02:28.244Z,1.00
2022-12-27T22:05:14.216Z,1.00
2022-12-27T22:08:00.312Z,1.00
2022-12-27T22:10:57.016Z,99.90
2022-12-27T22:13:43.398Z,99.90
2022-12-27T22:16:32.064Z,99.90
2022-12-27T22:19:17.808Z,99.90
2022-12-27T22:22:03.683Z,99.90
2022-12-27T22:24:49.376Z,99.90
2022-12-27T22:27:35.123Z,17.00
2022-12-27T22:30:20.875Z,73.60
2022-12-27T22:33:06.910Z,99.90
2022-12-27T22:35:52.832Z,99.90
2022-12-27T22:38:38.364Z,99.90
2022-12-27T22:41:29.420Z,92.30
2022-12-27T22:44:15.602Z,99.90
2022-12-27T22:50:07.662Z,99.90
2022-12-27T22:52:54.639Z,1.00
2022-12-27T22:55:41.183Z,1.00
2022-12-27T22:58:33.588Z,1.00
2022-12-27T23:01:22.249Z,1.00
2022-12-27T23:04:12.040Z,1.00
2022-12-27T23:07:01.737Z,99.90
2022-12-27T23:09:47.140Z,1.00
2022-12-27T23:12:32.571Z,1.00
2022-12-27T23:15:18.339Z,1.00
2022-12-27T23:18:04.039Z,99.90
2022-12-27T23:21:20.804Z,99.90
2022-12-27T23:23:55.605Z,1.00
2022-12-27T23:26:42.392Z,1.00
2022-12-27T23:29:27.972Z,99.90
2022-12-27T23:32:13.655Z,99.90
2022-12-27T23:34:59.453Z,99.90
2022-12-27T23:37:44.848Z,99.90
2022-12-27T23:40:30.913Z,91.00
2022-12-27T23:43:50.599Z,1.00
2022-12-27T23:46:25.797Z,1.00
2022-12-27T23:49:11.691Z,1.00
2022-12-27T23:51:57.228Z,1.00
2022-12-27T23:54:42.744Z,1.00
2022-12-27T23:57:28.486Z,1.00
